Time;durP1;ratioP1;P1;durP2;ratioP2;P2;SDS_P1;SDS_P2;PMS_P1;PMS_P2;Temp;Humidity;BMP_temperature;BMP_pressure;BME280_temperature;BME280_humidity;BME280_pressure;Samples;Min_cycle;Max_cycle;Signal;HPM_P1;HPM_P2
2023/01/20 00:01:24;;;;;;;70.90;20.50;;;;;;;4.10;100.00;101457.66;106808;1285;62039;-82
2023/01/20 00:03:51;;;;;;;65.60;20.70;;;;;;;4.08;100.00;101456.63;106726;1286;61023;-82
2023/01/20 00:06:17;;;;;;;64.80;20.00;;;;;;;4.05;100.00;101460.67;106806;1285;74681;-82
2023/01/20 00:08:42;;;;;;;66.30;21.20;;;;;;;4.01;100.00;101457.16;106833;1285;58298;-82
2023/01/20 00:11:11;;;;;;;62.60;20.00;;;;;;;3.99;100.00;101455.66;106604;1285;58285;-82
2023/01/20 00:13:37;;;;;;;69.00;21.40;;;;;;;3.96;100.00;101457.49;106786;1285;61941;-82
2023/01/20 00:16:05;;;;;;;61.20;19.30;;;;;;;3.92;100.00;101454.09;106870;1285;58322;-82
2023/01/20 00:18:30;;;;;;;61.80;19.70;;;;;;;3.89;100.00;101449.64;106851;1285;73189;-82
2023/01/20 00:21:00;;;;;;;66.20;21.30;;;;;;;3.87;100.00;101445.33;106673;1286;58629;-81
2023/01/20 00:23:25;;;;;;;64.40;21.20;;;;;;;3.84;100.00;101441.73;106832;1285;72192;-81
2023/01/20 00:25:51;;;;;;;61.90;21.90;;;;;;;3.82;100.00;101441.68;106839;1285;58221;-82
2023/01/20 00:28:16;;;;;;;62.60;20.10;;;;;;;3.80;100.00;101443.77;106836;1285;58314;-82
2023/01/20 00:30:42;;;;;;;69.70;22.50;;;;;;;3.77;100.00;101437.18;106848;1285;58525;-82
2023/01/20 00:33:07;;;;;;;68.80;20.30;;;;;;;3.76;100.00;101438.65;106839;1285;58234;-82
2023/01/20 00:35:33;;;;;;;65.90;19.70;;;;;;;3.77;100.00;101443.04;106814;1285;58268;-82
2023/01/20 00:37:58;;;;;;;68.70;21.10;;;;;;;3.77;100.00;101440.75;106980;1285;58282;-82
2023/01/20 00:40:24;;;;;;;70.40;19.80;;;;;;;3.77;100.00;101440.23;106514;1285;58397;-81
2023/01/20 00:42:49;;;;;;;62.90;20.20;;;;;;;3.75;100.00;101434.73;106606;1285;58736;-83
2023/01/20 00:45:15;;;;;;;64.10;20.40;;;;;;;3.77;100.00;101439.48;106933;1285;58708;-82
2023/01/20 00:47:41;;;;;;;63.70;20.10;;;;;;;3.78;100.00;101439.52;106446;1285;59385;-82
2023/01/20 00:50:07;;;;;;;66.50;20.80;;;;;;;3.76;100.00;101443.36;106889;1285;58277;-82
2023/01/20 00:52:32;;;;;;;67.70;21.40;;;;;;;3.73;100.00;101443.91;106229;1286;317700;-82
2023/01/20 00:54:57;;;;;;;71.00;21.20;;;;;;;3.72;100.00;101449.52;106914;1284;58327;-81
2023/01/20 00:57:23;;;;;;;67.90;20.20;;;;;;;3.72;100.00;101451.87;106945;1284;58950;-81
2023/01/20 00:59:49;;;;;;;63.80;20.00;;;;;;;3.73;100.00;101449.91;106970;1285;58279;-82
2023/01/20 01:02:14;;;;;;;69.60;21.60;;;;;;;3.75;100.00;101448.48;106789;1285;58320;-82
2023/01/20 01:04:40;;;;;;;66.30;20.70;;;;;;;3.72;100.00;101446.87;106881;1285;58334;-82
2023/01/20 01:07:05;;;;;;;67.60;19.00;;;;;;;3.74;100.00;101447.48;106903;1284;58542;-82
2023/01/20 01:09:31;;;;;;;64.80;19.80;;;;;;;3.75;100.00;101447.41;106896;1285;58247;-82
2023/01/20 01:11:56;;;;;;;64.20;20.10;;;;;;;3.76;100.00;101443.15;106948;1285;58268;-82
2023/01/20 01:14:22;;;;;;;61.90;19.00;;;;;;;3.74;100.00;101441.86;106907;1284;58290;-82
2023/01/20 01:16:47;;;;;;;60.20;18.60;;;;;;;3.72;100.00;101440.09;106813;1284;58188;-82
2023/01/20 01:19:13;;;;;;;65.00;20.40;;;;;;;3.75;100.00;101435.08;106849;1285;59041;-82
2023/01/20 01:21:38;;;;;;;63.20;18.70;;;;;;;3.78;100.00;101432.05;106508;1285;58422;-81
2023/01/20 01:24:04;;;;;;;56.90;19.00;;;;;;;3.77;100.00;101429.17;106935;1284;58750;-81
2023/01/20 01:26:29;;;;;;;61.70;18.90;;;;;;;3.78;100.00;101434.60;106508;1284;58629;-82
2023/01/20 01:28:55;;;;;;;52.20;17.10;;;;;;;3.79;100.00;101436.29;106922;1285;58461;-81
2023/01/20 01:31:21;;;;;;;60.90;18.40;;;;;;;3.80;100.00;101438.14;106540;1284;58271;-82
2023/01/20 01:33:47;;;;;;;57.00;19.40;;;;;;;3.81;100.00;101437.83;106808;1285;58604;-82
2023/01/20 01:36:16;;;;;;;60.90;19.00;;;;;;;3.82;100.00;101440.91;106904;1285;58693;-82
2023/01/20 01:38:43;;;;;;;57.10;17.90;;;;;;;3.85;100.00;101444.88;106885;1285;58206;-81
2023/01/20 01:41:13;;;;;;;59.20;19.20;;;;;;;3.83;100.00;101445.77;106777;1285;58196;-81
2023/01/20 01:43:58;;;;;;;58.20;18.10;;;;;;;3.79;100.00;101446.21;106638;1286;74672;-82
2023/01/20 01:46:24;;;;;;;59.30;19.00;;;;;;;3.76;100.00;101445.26;106807;1285;72462;-81
2023/01/20 01:48:49;;;;;;;57.20;19.60;;;;;;;3.78;100.00;101447.35;106860;1284;58515;-82
2023/01/20 01:51:33;;;;;;;56.40;18.40;;;;;;;3.76;100.00;101443.61;106869;1284;58236;-81
2023/01/20 01:54:01;;;;;;;;;;;;;;;3.76;100.00;101437.61;106945;1284;60302;-81
2023/01/20 01:56:28;;;;;;;55.40;18.10;;;;;;;3.76;100.00;101433.03;106870;1285;73555;-81
2023/01/20 01:58:57;;;;;;;58.70;19.20;;;;;;;3.80;100.00;101435.84;106856;1285;74508;-82
2023/01/20 02:01:24;;;;;;;58.40;17.90;;;;;;;3.82;100.00;101433.36;106745;1285;72443;-81
2023/01/20 02:03:52;;;;;;;59.80;18.60;;;;;;;3.82;100.00;101436.20;106829;1284;62278;-82
2023/01/20 02:06:20;;;;;;;61.70;19.70;;;;;;;3.83;100.00;101435.87;106898;1285;61049;-81
2023/01/20 02:08:47;;;;;;;53.70;18.10;;;;;;;3.79;100.00;101440.60;106864;1284;74672;-82
2023/01/20 02:11:12;;;;;;;55.30;18.30;;;;;;;3.76;100.00;101441.72;106883;1285;74208;-82
2023/01/20 02:13:39;;;;;;;58.50;17.60;;;;;;;3.76;100.00;101439.63;106727;1286;58281;-81
2023/01/20 02:16:25;;;;;;;66.00;18.90;;;;;;;3.75;100.00;101438.32;106899;1285;58216;-81
2023/01/20 02:19:03;;;;;;;55.90;18.90;;;;;;;3.71;100.00;101444.84;106914;1285;61411;-82
2023/01/20 02:21:47;;;;;;;62.50;18.40;;;;;;;3.64;100.00;101440.69;106897;1284;73887;-81
2023/01/20 02:24:44;;;;;;;62.50;18.30;;;;;;;3.49;100.00;101441.92;106924;1284;74248;-81
2023/01/20 02:27:18;;;;;;;58.60;18.70;;;;;;;3.23;100.00;101441.55;106835;1284;72610;-82
2023/01/20 02:30:22;;;;;;;57.00;17.90;;;;;;;3.02;100.00;101446.10;106819;1284;61715;-81
2023/01/20 02:32:56;;;;;;;61.40;18.80;;;;;;;2.85;100.00;101447.14;106871;1285;61078;-81
2023/01/20 02:35:43;;;;;;;64.10;20.10;;;;;;;2.78;100.00;101447.31;106887;1284;74600;-82
2023/01/20 02:38:23;;;;;;;63.90;18.20;;;;;;;2.68;100.00;101443.05;106857;1285;74484;-81
2023/01/20 02:41:25;;;;;;;58.90;18.20;;;;;;;2.63;100.00;101440.05;106857;1284;73498;-81
2023/01/20 02:44:02;;;;;;;66.90;19.40;;;;;;;2.58;100.00;101441.42;105971;1293;60977;-82
2023/01/20 02:46:33;;;;;;;64.50;19.50;;;;;;;2.55;100.00;101443.80;106029;1293;59614;-81
2023/01/20 02:49:09;;;;;;;69.00;20.40;;;;;;;2.52;100.00;101446.27;106030;1294;74850;-81
2023/01/20 02:51:46;;;;;;;60.90;19.10;;;;;;;2.50;100.00;101448.05;106010;1293;74250;-81
2023/01/20 02:54:16;;;;;;;76.50;20.70;;;;;;;2.50;100.00;101444.39;106026;1293;73769;-81
2023/01/20 02:56:42;;;;;;;70.90;19.90;;;;;;;2.50;100.00;101443.48;106001;1294;61842;-81
2023/01/20 02:59:11;;;;;;;68.00;20.40;;;;;;;2.48;100.00;101439.26;105952;1293;58373;-81
2023/01/20 03:01:56;;;;;;;64.90;20.80;;;;;;;2.47;100.00;101437.20;106018;1294;73587;-81
2023/01/20 03:04:26;;;;;;;68.40;20.80;;;;;;;2.49;100.00;101431.16;106001;1293;74368;-81
2023/01/20 03:06:55;;;;;;;67.00;19.90;;;;;;;2.46;100.00;101428.70;105788;1294;72608;-81
2023/01/20 03:09:26;;;;;;;64.80;19.10;;;;;;;2.48;100.00;101437.67;106031;1294;61696;-81
2023/01/20 03:11:57;;;;;;;63.80;19.40;;;;;;;2.53;100.00;101438.19;105941;1294;61004;-80
2023/01/20 03:14:23;;;;;;;67.30;20.90;;;;;;;2.51;100.00;101436.95;105948;1294;74484;-81
2023/01/20 03:16:49;;;;;;;60.00;19.50;;;;;;;2.55;100.00;101438.96;106060;1294;58281;-81
2023/01/20 03:19:17;;;;;;;71.50;20.80;;;;;;;2.53;100.00;101441.08;106013;1294;58714;-81
2023/01/20 03:21:43;;;;;;;68.60;21.00;;;;;;;2.50;100.00;101444.80;106666;1285;58222;-81
2023/01/20 03:24:09;;;;;;;63.80;20.10;;;;;;;2.52;100.00;101448.84;106520;1285;58345;-81
2023/01/20 03:26:34;;;;;;;75.00;21.00;;;;;;;2.52;100.00;101453.21;106911;1284;60278;-81
2023/01/20 03:29:05;;;;;;;61.00;19.50;;;;;;;2.51;100.00;101462.09;106907;1285;58292;-80
2023/01/20 03:31:42;;;;;;;66.60;20.40;;;;;;;2.53;100.00;101467.44;106332;1290;73420;-81
2023/01/20 03:34:11;;;;;;;65.20;20.00;;;;;;;2.51;100.00;101468.32;106535;1286;60912;-80
2023/01/20 03:36:38;;;;;;;72.20;21.30;;;;;;;2.51;100.00;101468.72;106701;1286;61487;-81
2023/01/20 03:39:04;;;;;;;66.10;20.70;;;;;;;2.54;100.00;101463.15;106657;1286;74706;-81
2023/01/20 03:41:39;;;;;;;67.60;19.20;;;;;;;2.55;100.00;101459.92;106808;1285;58261;-81
2023/01/20 03:44:26;;;;;;;69.30;19.70;;;;;;;2.53;100.00;101456.95;106774;1285;73595;-81
2023/01/20 03:47:27;;;;;;;66.60;19.30;;;;;;;2.54;100.00;101467.31;106793;1285;60968;-80
2023/01/20 03:50:02;;;;;;;62.60;20.50;;;;;;;2.54;100.00;101474.33;106191;1292;60161;-81
2023/01/20 03:52:58;;;;;;;65.20;20.00;;;;;;;2.53;100.00;101479.27;106003;1291;74092;-81
2023/01/20 03:55:32;;;;;;;65.50;19.80;;;;;;;2.53;100.00;101477.34;105583;1300;73814;-81
2023/01/20 03:58:03;;;;;;;65.80;21.10;;;;;;;2.53;100.00;101478.89;105512;1299;74022;-81
2023/01/20 04:00:32;;;;;;;66.40;19.80;;;;;;;2.54;100.00;101473.46;105583;1299;60922;-81
2023/01/20 04:03:01;;;;;;;62.00;20.50;;;;;;;2.53;100.00;101471.15;105556;1299;61281;-81
2023/01/20 04:05:28;;;;;;;63.20;19.90;;;;;;;2.54;100.00;101469.44;105435;1299;73760;-80
2023/01/20 04:07:56;;;;;;;70.00;20.80;;;;;;;2.51;100.00;101465.48;105552;1299;74547;-81
2023/01/20 04:10:24;;;;;;;64.40;19.70;;;;;;;2.48;100.00;101467.04;105440;1300;73837;-81
2023/01/20 04:12:50;;;;;;;60.70;19.70;;;;;;;2.48;100.00;101467.48;105585;1299;61079;-81
2023/01/20 04:15:17;;;;;;;69.60;19.90;;;;;;;2.46;100.00;101468.16;105595;1299;58417;-81
2023/01/20 04:17:43;;;;;;;72.60;21.90;;;;;;;2.44;100.00;101475.17;105508;1300;58330;-81
2023/01/20 04:20:13;;;;;;;67.50;20.60;;;;;;;2.42;100.00;101477.27;105598;1299;59140;-81
2023/01/20 04:22:58;;;;;;;73.40;19.80;;;;;;;2.38;100.00;101482.14;105506;1300;73337;-81
2023/01/20 04:25:26;;;;;;;80.20;25.10;;;;;;;2.31;100.00;101495.37;105394;1302;62174;-81
2023/01/20 04:27:51;;;;;;;72.60;22.00;;;;;;;2.19;100.00;101489.39;105991;1293;60342;-81
2023/01/20 04:30:17;;;;;;;70.40;21.90;;;;;;;2.10;100.00;101487.38;106043;1294;58307;-80
2023/01/20 04:32:43;;;;;;;67.10;21.10;;;;;;;2.00;100.00;101485.41;106530;1285;58778;-80
2023/01/20 04:35:12;;;;;;;67.50;20.70;;;;;;;1.92;100.00;101485.66;106662;1286;58428;-80
2023/01/20 04:37:38;;;;;;;70.70;21.40;;;;;;;1.85;100.00;101492.51;106669;1286;61303;-80
2023/01/20 04:40:03;;;;;;;78.50;22.20;;;;;;;1.82;100.00;101493.43;106894;1285;58327;-80
2023/01/20 04:42:29;;;;;;;75.50;22.20;;;;;;;1.79;100.00;101493.55;106404;1286;58900;-81
2023/01/20 04:44:54;;;;;;;75.90;21.60;;;;;;;1.81;100.00;101495.92;106757;1286;58558;-81
2023/01/20 04:47:20;;;;;;;71.00;22.00;;;;;;;1.84;100.00;101499.23;106925;1285;58200;-81
2023/01/20 04:49:45;;;;;;;80.90;21.70;;;;;;;1.87;100.00;101504.64;106903;1285;59950;-81
2023/01/20 04:52:11;;;;;;;73.30;22.20;;;;;;;1.93;100.00;101505.19;106910;1285;58465;-81
2023/01/20 04:54:36;;;;;;;72.60;22.10;;;;;;;1.97;100.00;101505.25;106894;1284;58265;-80
2023/01/20 04:57:02;;;;;;;83.60;22.60;;;;;;;1.97;100.00;101505.02;106442;1285;58435;-80
2023/01/20 04:59:27;;;;;;;72.30;22.10;;;;;;;1.99;100.00;101503.77;106910;1285;58145;-81
2023/01/20 05:01:53;;;;;;;74.40;22.70;;;;;;;2.02;100.00;101503.21;106846;1285;58827;-81
2023/01/20 05:04:18;;;;;;;83.50;22.50;;;;;;;2.03;100.00;101496.04;106930;1286;58271;-80
2023/01/20 05:06:44;;;;;;;87.30;22.70;;;;;;;2.05;100.00;101495.32;106872;1285;58256;-81
2023/01/20 05:09:14;;;;;;;75.20;21.80;;;;;;;2.08;100.00;101494.39;106888;1284;58382;-81
2023/01/20 05:11:40;;;;;;;78.30;23.40;;;;;;;2.09;100.00;101497.42;106438;1284;59716;-82
2023/01/20 05:14:06;;;;;;;73.80;21.50;;;;;;;2.09;100.00;101493.87;106582;1287;58273;-81
2023/01/20 05:16:32;;;;;;;74.20;22.00;;;;;;;2.11;100.00;101502.19;106746;1286;58316;-81
2023/01/20 05:18:58;;;;;;;73.00;22.90;;;;;;;2.12;100.00;101500.66;106480;1286;58702;-81
2023/01/20 05:21:24;;;;;;;78.60;22.80;;;;;;;2.11;100.00;101504.35;106701;1284;58495;-81
2023/01/20 05:23:53;;;;;;;86.80;24.40;;;;;;;2.12;100.00;101508.80;106904;1288;58741;-81
2023/01/20 05:26:19;;;;;;;74.10;21.70;;;;;;;2.13;100.00;101510.09;106728;1286;58287;-80
2023/01/20 05:28:44;;;;;;;73.60;21.30;;;;;;;2.11;100.00;101510.83;106897;1284;58325;-81
2023/01/20 05:31:10;;;;;;;70.40;21.60;;;;;;;2.13;100.00;101514.90;106491;1285;58935;-81
2023/01/20 05:33:36;;;;;;;72.20;21.90;;;;;;;2.13;100.00;101517.73;106764;1286;58274;-80
2023/01/20 05:36:06;;;;;;;87.40;24.30;;;;;;;2.13;100.00;101516.17;106896;1285;58221;-81
2023/01/20 05:38:31;;;;;;;81.30;23.80;;;;;;;2.13;100.00;101520.67;106457;1285;73195;-81
2023/01/20 05:41:01;;;;;;;84.20;22.60;;;;;;;2.09;100.00;101527.73;106435;1285;58537;-81
2023/01/20 05:43:26;;;;;;;74.00;22.30;;;;;;;2.08;100.00;101529.89;106476;1286;72540;-81
2023/01/20 05:45:52;;;;;;;79.90;22.50;;;;;;;2.08;100.00;101529.71;106802;1286;58506;-80
2023/01/20 05:48:17;;;;;;;73.20;22.50;;;;;;;2.08;100.00;101533.70;106838;1286;58879;-80
2023/01/20 05:50:43;;;;;;;78.30;23.40;;;;;;;2.11;100.00;101536.63;106791;1285;58554;-81
2023/01/20 05:53:09;;;;;;;75.70;20.80;;;;;;;2.11;100.00;101544.23;106835;1285;58259;-81
2023/01/20 05:55:34;;;;;;;73.30;22.40;;;;;;;2.10;100.00;101545.78;106464;1286;61346;-81
2023/01/20 05:58:01;;;;;;;70.40;21.60;;;;;;;2.14;100.00;101546.86;106478;1286;58436;-81
2023/01/20 06:00:27;;;;;;;80.90;23.40;;;;;;;2.17;100.00;101552.65;106799;1285;58481;-80
2023/01/20 06:02:52;;;;;;;72.50;21.70;;;;;;;2.22;100.00;101556.20;106791;1286;58272;-81
2023/01/20 06:05:18;;;;;;;69.00;22.10;;;;;;;2.25;100.00;101560.45;106819;1286;58222;-80
2023/01/20 06:07:44;;;;;;;73.10;20.80;;;;;;;2.32;100.00;101562.73;106635;1286;58666;-80
2023/01/20 06:10:10;;;;;;;84.40;23.40;;;;;;;2.34;100.00;101567.63;106843;1285;58409;-81
2023/01/20 06:12:35;;;;;;;73.30;21.50;;;;;;;2.36;100.00;101569.50;106729;1285;74459;-80
2023/01/20 06:15:01;;;;;;;88.10;23.30;;;;;;;2.38;100.00;101572.53;106802;1285;58280;-80
2023/01/20 06:17:26;;;;;;;79.90;22.60;;;;;;;2.38;100.00;101569.52;106807;1285;58167;-81
2023/01/20 06:19:52;;;;;;;88.60;25.10;;;;;;;2.37;100.00;101569.52;106757;1286;58273;-81
2023/01/20 06:22:19;;;;;;;72.90;25.10;;;;;;;2.36;100.00;101567.20;106902;1286;58674;-80
2023/01/20 06:24:45;;;;;;;88.50;24.00;;;;;;;2.32;100.00;101571.16;106732;1285;73534;-82
2023/01/20 06:27:11;;;;;;;87.80;24.20;;;;;;;2.29;100.00;101580.05;106632;1286;58329;-80
2023/01/20 06:29:36;;;;;;;89.30;24.40;;;;;;;2.30;100.00;101581.73;106640;1287;58300;-81
2023/01/20 06:32:02;;;;;;;73.20;23.70;;;;;;;2.33;100.00;101583.79;106723;1286;58665;-80
2023/01/20 06:34:28;;;;;;;79.50;23.40;;;;;;;2.36;100.00;101584.66;106479;1288;58250;-80
2023/01/20 06:36:53;;;;;;;79.10;23.70;;;;;;;2.39;100.00;101583.39;106675;1288;58345;-81
2023/01/20 06:39:19;;;;;;;82.40;24.10;;;;;;;2.45;100.00;101585.35;106655;1288;58286;-80
2023/01/20 06:41:45;;;;;;;82.00;23.10;;;;;;;2.54;100.00;101581.14;106692;1287;58788;-80
2023/01/20 06:44:10;;;;;;;85.40;22.40;;;;;;;2.63;100.00;101575.67;106614;1290;58580;-81
2023/01/20 06:46:36;;;;;;;79.00;22.20;;;;;;;2.68;100.00;101574.39;106683;1286;58355;-80
2023/01/20 06:49:01;;;;;;;77.00;22.80;;;;;;;2.76;100.00;101577.41;106470;1286;58340;-80
2023/01/20 06:51:29;;;;;;;76.00;22.30;;;;;;;2.85;100.00;101574.78;106709;1288;58260;-81
2023/01/20 06:53:55;;;;;;;75.90;21.40;;;;;;;2.93;100.00;101574.92;106521;1289;74161;-80
2023/01/20 06:56:21;;;;;;;77.40;23.30;;;;;;;3.00;100.00;101577.19;106433;1287;58266;-81
2023/01/20 06:58:47;;;;;;;60.60;20.40;;;;;;;3.06;100.00;101581.40;106773;1286;58661;-81
2023/01/20 07:01:14;;;;;;;66.80;20.00;;;;;;;3.13;100.00;101581.52;106797;1286;58304;-81
2023/01/20 07:03:44;;;;;;;70.20;22.10;;;;;;;3.17;100.00;101582.81;106697;1286;59547;-81
2023/01/20 07:06:21;;;;;;;69.90;21.40;;;;;;;3.22;100.00;101581.64;106387;1289;73418;-81
2023/01/20 07:08:47;;;;;;;73.70;22.10;;;;;;;3.30;100.00;101584.36;106398;1289;72577;-81
2023/01/20 07:11:13;;;;;;;73.50;21.30;;;;;;;3.37;100.00;101584.07;106126;1289;58342;-81
2023/01/20 07:13:38;;;;;;;67.70;21.80;;;;;;;3.45;100.00;101585.06;106280;1289;58464;-81
2023/01/20 07:16:04;;;;;;;69.00;22.00;;;;;;;3.53;100.00;101582.77;106426;1289;58277;-81
2023/01/20 07:18:30;;;;;;;73.10;20.90;;;;;;;3.58;100.00;101583.31;106355;1289;58637;-81
2023/01/20 07:20:56;;;;;;;74.00;23.20;;;;;;;3.60;100.00;101583.21;106428;1289;58305;-81
2023/01/20 07:23:23;;;;;;;70.70;20.80;;;;;;;3.65;100.00;101584.09;106389;1289;60097;-81
2023/01/20 07:26:02;;;;;;;74.90;23.30;;;;;;;3.73;100.00;101577.65;106291;1289;72683;-81
2023/01/20 07:28:30;;;;;;;69.40;20.90;;;;;;;3.81;100.00;101585.27;106426;1289;73663;-82
2023/01/20 07:30:55;;;;;;;65.80;20.80;;;;;;;3.93;100.00;101589.73;106259;1289;73470;-83
2023/01/20 07:33:21;;;;;;;65.40;19.40;;;;;;;4.03;100.00;101589.98;106373;1289;58215;-81
2023/01/20 07:35:53;;;;;;;71.20;22.30;;;;;;;4.10;100.00;101590.38;106542;1288;58670;-82
2023/01/20 07:38:19;;;;;;;67.80;21.90;;;;;;;4.21;100.00;101588.98;106506;1286;72750;-82
2023/01/20 11:11:11;;;;;;;64.60;21.30;;;;;;;5.00;100.00;101473.84;103986;1280;616147;-81
2023/01/20 11:13:37;;;;;;;67.40;21.30;;;;;;;5.01;100.00;101478.67;104117;1280;61287;-82
2023/01/20 11:19:25;;;;;;;62.50;19.20;;;;;;;5.09;100.00;101477.95;104138;1284;73599;-83
2023/01/20 11:21:50;;;;;;;54.80;19.20;;;;;;;5.09;100.00;101471.45;104173;1279;60386;-82
2023/01/20 11:24:41;;;;;;;50.80;17.50;;;;;;;5.21;100.00;101472.52;104151;1282;211162;-84
2023/01/20 11:27:23;;;;;;;64.30;19.40;;;;;;;5.27;100.00;101473.27;104360;1279;60805;-83
2023/01/20 11:29:54;;;;;;;63.50;18.90;;;;;;;5.28;100.00;101471.09;104364;1278;60983;-83
2023/01/20 11:35:38;;;;;;;62.00;20.00;;;;;;;5.45;100.00;101459.51;102995;1291;600406;-82
2023/01/20 11:38:21;;;;;;;58.40;19.90;;;;;;;5.53;100.00;101464.49;103147;1293;60390;-82
2023/01/20 11:40:56;;;;;;;60.70;18.70;;;;;;;5.53;100.00;101464.09;103260;1293;61852;-83
2023/01/20 11:43:36;;;;;;;50.80;17.20;;;;;;;5.56;100.00;101464.79;103421;1294;73596;-82
2023/01/20 11:46:21;;;;;;;50.40;16.70;;;;;;;5.54;100.00;101466.31;103111;1290;74966;-81
2023/01/20 11:48:47;;;;;;;50.80;17.20;;;;;;;5.53;100.00;101466.59;103242;1291;191717;-81
2023/01/20 11:51:19;;;;;;;55.60;17.40;;;;;;;5.57;100.00;101460.18;103658;1291;60212;-82
2023/01/20 11:53:45;;;;;;;47.90;16.40;;;;;;;5.54;100.00;101460.25;103648;1286;60664;-82
2023/01/20 11:56:18;;;;;;;56.30;19.00;;;;;;;5.59;100.00;101459.71;103420;1291;60476;-81
2023/01/20 11:58:56;;;;;;;53.60;17.50;;;;;;;5.63;100.00;101457.13;103292;1290;73996;-81
2023/01/20 12:01:30;;;;;;;50.80;16.80;;;;;;;5.55;100.00;101462.29;103155;1291;71369;-81
2023/01/20 12:04:10;;;;;;;49.20;17.10;;;;;;;5.54;100.00;101463.50;103121;1286;62457;-82
2023/01/20 12:06:50;;;;;;;50.40;16.80;;;;;;;5.53;100.00;101458.95;103197;1291;60627;-81
2023/01/20 12:09:18;;;;;;;53.20;17.80;;;;;;;5.51;100.00;101458.29;102953;1294;74587;-81
2023/01/20 12:12:27;;;;;;;55.90;18.80;;;;;;;5.54;100.00;101458.81;102827;1293;74828;-82
2023/01/20 12:18:39;;;;;;;47.90;15.60;;;;;;;5.65;100.00;101457.26;102945;1294;599840;-81
2023/01/20 12:21:17;;;;;;;43.80;15.30;;;;;;;5.68;100.00;101459.81;103012;1292;62479;-82
2023/01/20 12:23:58;;;;;;;45.40;16.50;;;;;;;5.72;100.00;101460.47;102746;1299;60578;-81
2023/01/20 12:26:26;;;;;;;48.40;15.20;;;;;;;5.71;100.00;101457.75;103270;1290;73770;-82
2023/01/20 12:29:07;;;;;;;52.60;17.70;;;;;;;5.74;100.00;101457.09;103224;1291;74936;-83
2023/01/20 12:35:03;;;;;;;55.50;17.40;;;;;;;5.71;100.00;101456.84;102898;1293;600309;-81
2023/01/20 12:38:08;;;;;;;56.90;19.00;;;;;;;5.76;100.00;101452.33;102931;1294;60483;-81
2023/01/20 12:40:48;;;;;;;52.90;18.50;;;;;;;5.78;100.00;101456.19;102542;1299;61079;-81
2023/01/20 12:46:51;;;;;;;58.20;18.10;;;;;;;5.75;100.00;101455.11;102424;1298;74784;-81
2023/01/20 12:49:42;;;;;;;67.30;20.90;;;;;;;5.76;100.00;101456.72;102231;1295;356228;-81
2023/01/20 12:52:11;;;;;;;63.90;21.70;;;;;;;5.82;100.00;101457.95;102571;1300;62376;-81
2023/01/20 12:54:49;;;;;;;61.30;20.20;;;;;;;5.81;100.00;101463.09;102580;1293;60704;-82
2023/01/20 12:58:14;;;;;;;61.10;20.00;;;;;;;5.70;100.00;101459.15;102581;1299;73622;-82
2023/01/20 13:00:45;;;;;;;;;;;;;;;5.62;100.00;101457.84;102457;1299;74686;-82
2023/01/20 13:03:54;;;;;;;55.20;19.70;;;;;;;5.57;100.00;101455.08;102480;1299;74005;-81
2023/01/20 13:06:49;;;;;;;67.10;21.50;;;;;;;5.53;100.00;101455.12;102064;1304;62388;-81
2023/01/20 13:09:30;;;;;;;61.90;21.00;;;;;;;5.53;100.00;101452.23;101712;1304;60526;-81
2023/01/20 13:12:55;;;;;;;67.80;20.90;;;;;;;5.51;100.00;101451.45;101880;1309;73502;-81
2023/01/20 13:15:23;;;;;;;64.00;19.10;;;;;;;5.48;100.00;101450.42;100881;1320;73465;-81
2023/01/20 13:17:58;;;;;;;69.00;21.10;;;;;;;5.41;100.00;101451.48;101011;1317;73252;-81
2023/01/20 13:20:46;;;;;;;65.00;20.90;;;;;;;5.42;100.00;101457.21;100991;1313;60587;-82
2023/01/20 13:26:42;;;;;;;69.90;21.60;;;;;;;5.28;100.00;101445.92;102976;1291;600343;-81
2023/01/20 13:29:20;;;;;;;79.70;21.10;;;;;;;5.24;100.00;101443.95;103397;1288;60481;-81
2023/01/20 13:31:49;;;;;;;71.10;21.50;;;;;;;5.15;100.00;101445.34;103178;1294;61446;-81
2023/01/20 13:34:20;;;;;;;74.10;22.40;;;;;;;5.08;100.00;101449.14;103143;1288;73286;-81
2023/01/20 13:37:01;;;;;;;75.40;22.80;;;;;;;5.02;100.00;101449.50;103190;1292;73994;-81
2023/01/20 13:43:26;;;;;;;86.20;22.20;;;;;;;4.86;100.00;101438.30;102778;1291;603543;-81
2023/01/20 13:46:04;;;;;;;81.70;23.20;;;;;;;4.74;100.00;101440.30;102853;1297;62488;-81
2023/01/20 13:48:32;;;;;;;81.50;23.30;;;;;;;4.68;100.00;101448.77;103147;1293;61617;-81
2023/01/20 13:51:20;;;;;;;82.90;23.50;;;;;;;4.60;100.00;101449.06;103300;1293;73360;-81
2023/01/20 13:57:22;;;;;;;81.70;24.10;;;;;;;4.36;100.00;101452.73;103226;1288;199512;-80
2023/01/20 13:59:48;;;;;;;89.80;23.90;;;;;;;4.34;100.00;101452.52;103423;1288;61206;-80
2023/01/20 14:02:25;;;;;;;82.80;24.00;;;;;;;4.29;100.00;101452.23;103459;1288;61667;-81
2023/01/20 14:04:51;;;;;;;67.30;21.00;;;;;;;4.21;100.00;101452.77;103238;1288;73302;-81
2023/01/20 14:07:29;;;;;;;85.20;25.30;;;;;;;4.15;100.00;101453.30;103231;1288;60438;-80
2023/01/20 14:09:57;;;;;;;82.90;25.10;;;;;;;4.06;100.00;101447.43;103201;1293;73378;-80
2023/01/20 14:12:23;;;;;;;78.60;24.40;;;;;;;4.00;100.00;101448.70;103487;1294;60567;-81
2023/01/20 14:18:14;;;;;;;87.30;26.10;;;;;;;3.85;100.00;101440.76;103386;1288;74423;-81
2023/01/20 14:20:40;;;;;;;85.00;25.00;;;;;;;3.77;100.00;101443.57;103215;1295;74317;-81
2023/01/20 14:23:36;;;;;;;88.00;26.30;;;;;;;3.70;100.00;101449.42;103375;1293;60409;-82
2023/01/20 14:26:11;;;;;;;95.30;29.40;;;;;;;3.61;100.00;101452.44;102582;1299;61498;-81
2023/01/20 14:28:42;;;;;;;95.00;28.60;;;;;;;3.56;100.00;101450.83;102492;1296;61819;-82
2023/01/20 14:31:24;;;;;;;83.50;26.70;;;;;;;3.48;100.00;101452.73;102518;1296;74391;-81
2023/01/20 14:34:00;;;;;;;114.20;30.80;;;;;;;3.43;100.00;101451.34;102496;1297;73391;-81
2023/01/20 14:36:30;;;;;;;100.40;29.80;;;;;;;3.36;100.00;101448.89;102600;1296;74039;-82
2023/01/20 14:38:59;;;;;;;100.20;30.90;;;;;;;3.29;100.00;101446.36;102780;1298;62370;-80
2023/01/20 14:47:18;;;;;;;116.00;33.90;;;;;;;3.17;100.00;101448.39;102908;1292;600944;-80
2023/01/20 14:49:46;;;;;;;120.30;33.80;;;;;;;3.13;100.00;101454.23;103075;1291;62391;-80
2023/01/20 14:52:28;;;;;;;119.90;34.90;;;;;;;3.06;100.00;101456.54;103108;1292;60341;-80
2023/01/20 14:54:57;;;;;;;116.40;33.20;;;;;;;2.97;100.00;101457.39;102735;1300;73137;-80
2023/01/20 14:57:39;;;;;;;121.00;35.50;;;;;;;2.91;100.00;101457.20;103243;1288;74737;-80
2023/01/20 15:00:25;;;;;;;124.90;34.90;;;;;;;2.83;100.00;101455.38;102968;1287;274206;-80
2023/01/20 15:03:28;;;;;;;128.00;35.70;;;;;;;2.78;100.00;101453.90;102963;1294;604205;-82
2023/01/20 15:06:00;;;;;;;135.00;37.10;;;;;;;2.69;100.00;101453.75;103345;1292;60290;-80
2023/01/20 15:08:47;;;;;;;132.20;37.10;;;;;;;2.63;100.00;101455.84;103323;1292;61505;-81
2023/01/20 15:11:17;;;;;;;144.10;39.30;;;;;;;2.57;100.00;101454.55;103527;1288;73494;-81
2023/01/20 15:13:57;;;;;;;137.10;38.20;;;;;;;2.55;100.00;101456.29;103540;1291;74858;-80
2023/01/20 15:16:30;;;;;;;136.50;35.60;;;;;;;2.54;100.00;101460.93;103407;1290;252351;-81
2023/01/20 15:19:18;;;;;;;130.10;36.10;;;;;;;2.54;100.00;101463.05;103682;1287;61473;-81
2023/01/20 15:21:48;;;;;;;115.10;33.10;;;;;;;2.46;100.00;101464.69;103786;1289;61942;-81
2023/01/20 15:24:28;;;;;;;119.30;32.30;;;;;;;2.42;100.00;101462.54;103792;1286;73489;-81
2023/01/20 15:26:56;;;;;;;105.10;30.40;;;;;;;2.42;100.00;101465.21;103524;1292;73237;-82
2023/01/20 15:29:27;;;;;;;96.40;28.50;;;;;;;2.41;100.00;101465.67;103432;1286;72367;-81